createdAt,value
2019-06-20T00:03:25.508Z,19.61
2019-06-20T00:08:31.422Z,19.50
2019-06-20T00:13:36.762Z,19.50
2019-06-20T00:18:42.058Z,19.41
2019-06-20T00:23:47.501Z,19.35
2019-06-20T00:28:53.117Z,19.27
2019-06-20T00:33:58.430Z,19.33
2019-06-20T00:39:03.929Z,19.22
2019-06-20T00:44:09.939Z,19.12
2019-06-20T00:49:15.274Z,19.02
2019-06-20T00:54:21.035Z,19.07
2019-06-20T00:59:26.998Z,18.92
2019-06-20T01:04:32.234Z,18.93
2019-06-20T01:09:37.665Z,18.92
2019-06-20T01:14:43.017Z,19.01
2019-06-20T01:19:48.580Z,19.04
2019-06-20T01:24:54.891Z,19.02
2019-06-20T01:30:00.140Z,19.05
2019-06-20T01:35:06.314Z,19.01
2019-06-20T01:40:11.883Z,19.10
2019-06-20T01:45:17.301Z,19.09
2019-06-20T01:50:22.533Z,19.00
2019-06-20T01:55:27.854Z,18.97
2019-06-20T02:00:35.842Z,19.07
2019-06-20T02:05:41.267Z,19.08
2019-06-20T02:10:46.639Z,19.04
2019-06-20T02:15:51.946Z,19.00
2019-06-20T02:20:58.682Z,19.11
2019-06-20T02:26:04.018Z,18.99
2019-06-20T02:31:10.703Z,18.73
2019-06-20T02:36:16.117Z,18.56
2019-06-20T02:41:21.425Z,18.55
2019-06-20T02:46:26.760Z,18.55
2019-06-20T02:51:32.054Z,18.54
2019-06-20T02:56:37.438Z,18.44
2019-06-20T03:01:42.717Z,18.41
2019-06-20T03:06:48.043Z,18.27
2019-06-20T03:11:53.509Z,18.20
2019-06-20T03:16:58.725Z,18.15
2019-06-20T03:22:04.126Z,17.99
2019-06-20T03:27:09.561Z,17.92
2019-06-20T03:32:15.218Z,17.98
2019-06-20T03:37:20.615Z,18.07
2019-06-20T03:42:25.897Z,17.94
2019-06-20T03:47:31.493Z,17.97
2019-06-20T03:52:36.814Z,18.02
2019-06-20T03:57:42.105Z,18.01
2019-06-20T04:02:47.526Z,18.15
2019-06-20T04:07:52.778Z,18.02
2019-06-20T04:12:58.277Z,18.06
2019-06-20T04:18:03.850Z,18.01
2019-06-20T04:23:09.598Z,18.00
2019-06-20T04:28:14.918Z,18.05
2019-06-20T04:33:20.163Z,18.18
2019-06-20T04:38:25.485Z,18.26
2019-06-20T04:43:31.748Z,18.54
2019-06-20T04:48:37.072Z,18.82
2019-06-20T04:53:42.417Z,19.03
2019-06-20T04:58:48.089Z,19.32
2019-06-20T05:03:53.357Z,19.49
2019-06-20T05:08:58.675Z,19.54
2019-06-20T05:14:04.049Z,19.53
2019-06-20T05:19:09.760Z,19.54
2019-06-20T05:24:15.087Z,19.53
2019-06-20T05:29:20.338Z,19.57
2019-06-20T05:34:25.686Z,19.56
2019-06-20T05:39:31.095Z,19.71
2019-06-20T05:44:36.368Z,19.77
2019-06-20T05:49:41.584Z,19.92
2019-06-20T05:54:46.902Z,19.98
2019-06-20T05:59:52.374Z,20.46
2019-06-20T06:04:57.650Z,20.52
2019-06-20T06:10:03.974Z,20.51
2019-06-20T06:15:11.109Z,20.52
2019-06-20T06:20:16.728Z,20.43
2019-06-20T06:25:22.747Z,20.60
2019-06-20T06:30:28.107Z,21.40
2019-06-20T06:35:33.479Z,20.87
2019-06-20T06:40:38.775Z,20.76
2019-06-20T06:45:44.083Z,21.05
2019-06-20T06:50:49.423Z,21.01
2019-06-20T06:55:54.981Z,21.42
2019-06-20T07:01:00.310Z,21.80
2019-06-20T07:06:05.677Z,21.88
2019-06-20T07:11:11.466Z,21.57
2019-06-20T07:16:17.289Z,21.82
2019-06-20T07:21:23.682Z,21.75
2019-06-20T07:26:29.068Z,22.34
2019-06-20T07:31:34.458Z,22.12
2019-06-20T07:36:39.797Z,22.27
2019-06-20T07:41:45.221Z,22.20
2019-06-20T07:46:50.623Z,22.48
2019-06-20T07:51:55.990Z,23.33
2019-06-20T07:57:01.577Z,23.34
2019-06-20T08:02:07.174Z,23.28
2019-06-20T08:07:12.623Z,22.92
2019-06-20T08:12:17.894Z,22.65
2019-06-20T08:17:34.903Z,22.77
2019-06-20T08:22:30.829Z,22.78
2019-06-20T08:27:51.782Z,23.36
2019-06-20T08:32:59.146Z,23.06
2019-06-20T08:38:05.691Z,23.43
2019-06-20T08:43:11.690Z,23.99
2019-06-20T08:48:17.018Z,24.33
2019-06-20T08:53:22.345Z,24.40
2019-06-20T08:58:27.800Z,24.40
2019-06-20T09:03:33.498Z,25.11
2019-06-20T09:08:39.197Z,25.65
2019-06-20T09:13:44.808Z,25.67
2019-06-20T09:18:50.166Z,25.49
2019-06-20T09:23:55.724Z,25.66
2019-06-20T09:29:01.127Z,26.45
2019-06-20T09:34:06.671Z,26.69
2019-06-20T09:39:12.588Z,26.05
2019-06-20T09:44:18.282Z,26.02
2019-06-20T09:49:24.040Z,25.36
2019-06-20T09:54:29.252Z,26.00
2019-06-20T09:59:34.466Z,26.26
2019-06-20T10:04:39.944Z,25.96
2019-06-20T10:09:46.667Z,25.39
2019-06-20T10:14:53.518Z,25.47
2019-06-20T10:19:58.990Z,25.42
2019-06-20T10:25:04.445Z,25.49
2019-06-20T10:30:14.384Z,25.77
2019-06-20T10:35:17.109Z,25.79
2019-06-20T10:40:23.074Z,26.17
2019-06-20T10:45:29.430Z,26.36
2019-06-20T10:50:36.298Z,26.74
2019-06-20T10:55:43.167Z,25.94
2019-06-20T11:00:48.676Z,25.98
2019-06-20T11:05:54.170Z,26.03
2019-06-20T11:10:59.511Z,26.27
2019-06-20T11:16:04.883Z,26.78
2019-06-20T11:21:10.344Z,26.98
2019-06-20T11:26:15.892Z,25.90
2019-06-20T11:31:21.417Z,25.77
2019-06-20T11:36:26.647Z,26.08
2019-06-20T11:41:32.195Z,25.96
2019-06-20T11:46:38.579Z,25.95
2019-06-20T11:51:43.983Z,26.20
2019-06-20T11:56:49.207Z,27.17
2019-06-20T12:01:54.575Z,27.56
2019-06-20T12:06:59.864Z,27.30
2019-06-20T12:12:05.315Z,26.88
2019-06-20T12:17:10.581Z,26.76
2019-06-20T12:22:16.070Z,26.22
2019-06-20T12:27:21.522Z,27.31
2019-06-20T12:32:27.024Z,27.69
2019-06-20T12:37:34.774Z,27.38
2019-06-20T12:42:41.782Z,27.66
2019-06-20T12:47:47.322Z,27.96
2019-06-20T12:52:52.538Z,28.01
2019-06-20T12:57:57.988Z,29.05
2019-06-20T13:03:03.328Z,29.08
2019-06-20T13:08:08.658Z,31.75
2019-06-20T13:13:14.546Z,29.82
2019-06-20T13:18:20.203Z,30.20
2019-06-20T13:23:25.563Z,29.02
2019-06-20T13:28:31.378Z,28.17
2019-06-20T13:33:39.089Z,27.13
2019-06-20T13:38:44.527Z,26.68
2019-06-20T13:43:49.712Z,26.66
2019-06-20T13:48:54.998Z,26.16
2019-06-20T13:54:00.448Z,25.68
2019-06-20T13:59:05.818Z,23.08
2019-06-20T14:04:11.208Z,21.70
2019-06-20T14:09:16.563Z,21.08
2019-06-20T14:14:22.564Z,20.58
2019-06-20T14:19:27.869Z,20.77
2019-06-20T14:24:33.352Z,20.91
2019-06-20T14:29:38.619Z,21.27
2019-06-20T14:34:45.393Z,21.85
2019-06-20T14:39:51.091Z,25.90
2019-06-20T14:44:56.389Z,30.05
2019-06-20T14:50:01.679Z,32.05
2019-06-20T14:55:07.037Z,33.48
2019-06-20T15:00:14.244Z,35.06
2019-06-20T15:05:20.205Z,34.26
2019-06-20T15:10:25.559Z,35.08
2019-06-20T15:15:31.606Z,35.12
2019-06-20T15:20:37.076Z,35.44
2019-06-20T15:25:42.314Z,37.44
2019-06-20T15:30:48.867Z,35.70
2019-06-20T15:35:56.529Z,32.55
2019-06-20T15:41:01.832Z,29.97
2019-06-20T15:46:07.548Z,28.53
2019-06-20T15:51:12.834Z,27.39
2019-06-20T15:56:18.121Z,26.20
2019-06-20T16:01:23.517Z,25.48
2019-06-20T16:06:28.793Z,24.86
2019-06-20T16:11:34.123Z,24.14
2019-06-20T16:16:39.790Z,23.56
2019-06-20T16:21:45.117Z,22.73
2019-06-20T16:26:51.520Z,22.48
2019-06-20T16:31:57.439Z,22.72
2019-06-20T16:37:10.076Z,22.94
2019-06-20T16:42:09.841Z,22.95
2019-06-20T16:47:15.101Z,22.42
2019-06-20T16:52:20.507Z,22.26
2019-06-20T16:57:26.266Z,22.15
2019-06-20T17:02:31.623Z,22.09
2019-06-20T17:07:37.269Z,22.12
2019-06-20T17:12:42.778Z,21.92
2019-06-20T17:17:48.858Z,21.41
2019-06-20T17:22:54.536Z,21.07
2019-06-20T17:27:59.859Z,20.66
2019-06-20T17:33:06.169Z,20.20
2019-06-20T17:38:11.469Z,20.14
2019-06-20T17:43:16.710Z,19.90
2019-06-20T17:48:22.172Z,19.71
2019-06-20T17:53:27.523Z,19.96
2019-06-20T17:58:33.002Z,19.78
2019-06-20T18:03:41.529Z,19.50
2019-06-20T18:08:52.952Z,19.50
2019-06-20T18:14:03.687Z,19.46
2019-06-20T18:19:12.225Z,19.40
2019-06-20T18:24:20.420Z,19.50
2019-06-20T18:29:29.978Z,19.46
2019-06-20T18:34:37.410Z,19.32
2019-06-20T18:39:44.858Z,19.28
2019-06-20T18:44:54.522Z,19.11
2019-06-20T18:50:04.725Z,18.99
2019-06-20T18:55:13.438Z,19.01
2019-06-20T19:00:34.062Z,19.04
2019-06-20T19:05:32.265Z,18.93
2019-06-20T19:10:42.267Z,18.90
2019-06-20T19:15:50.431Z,18.86
2019-06-20T19:20:55.700Z,18.69
2019-06-20T19:26:01.012Z,18.54
2019-06-20T19:31:06.277Z,18.55
2019-06-20T19:36:11.951Z,18.69
2019-06-20T19:41:17.410Z,18.48
2019-06-20T19:46:22.902Z,18.48
2019-06-20T19:51:29.171Z,18.48
2019-06-20T19:56:34.804Z,18.48
2019-06-20T20:01:40.548Z,18.43
2019-06-20T20:10:47.744Z,18.48
2019-06-20T20:15:52.979Z,18.37
2019-06-20T20:20:58.280Z,18.32
2019-06-20T20:26:03.603Z,18.37
2019-06-20T20:31:09.562Z,18.36
2019-06-20T20:36:24.380Z,18.28
2019-06-20T20:41:21.869Z,18.33
2019-06-20T20:46:27.300Z,18.24
2019-06-20T20:51:32.719Z,18.12
2019-06-20T20:56:37.975Z,18.05
2019-06-20T21:01:43.293Z,18.03
2019-06-20T21:06:49.168Z,17.92
2019-06-20T21:11:54.423Z,17.89
2019-06-20T21:17:00.060Z,17.78
2019-06-20T21:22:05.505Z,17.82
2019-06-20T21:27:11.331Z,17.69
2019-06-20T21:32:16.922Z,17.77
2019-06-20T21:37:22.281Z,17.61
2019-06-20T21:42:27.801Z,17.64
2019-06-20T21:47:33.650Z,17.59
2019-06-20T21:52:39.250Z,17.58
2019-06-20T21:57:44.527Z,17.45
2019-06-20T22:02:50.251Z,17.40
2019-06-20T22:07:56.062Z,17.37
2019-06-20T22:13:01.426Z,17.27
2019-06-20T22:18:07.149Z,17.13
2019-06-20T22:23:12.523Z,17.10
2019-06-20T22:28:17.958Z,17.09
2019-06-20T22:33:23.669Z,17.17
2019-06-20T22:38:30.000Z,17.07
2019-06-20T22:43:35.501Z,17.04
2019-06-20T22:48:40.973Z,16.86
2019-06-20T22:53:46.375Z,16.87
2019-06-20T22:58:51.984Z,16.89
2019-06-20T23:03:57.458Z,16.83
2019-06-20T23:09:03.067Z,16.73
2019-06-20T23:14:09.747Z,16.73
2019-06-20T23:19:15.041Z,16.65
2019-06-20T23:24:20.527Z,16.47
2019-06-20T23:29:25.880Z,16.26
2019-06-20T23:34:34.065Z,16.32
2019-06-20T23:39:39.329Z,16.34
2019-06-20T23:44:44.719Z,16.33
2019-06-20T23:49:50.026Z,16.26
2019-06-20T23:54:57.133Z,16.23
